sensor_id;sensor_type;location;lat;lon;timestamp;P1;durP1;ratioP1;P2;durP2;ratioP2
38567;SDS011;24338;48.280;10.970;2022-10-22T00:01:44;5.25;;;1.90;;
38567;SDS011;24338;48.280;10.970;2022-10-22T00:04:11;4.97;;;1.40;;
38567;SDS011;24338;48.280;10.970;2022-10-22T00:06:38;5.75;;;1.60;;
38567;SDS011;24338;48.280;10.970;2022-10-22T00:09:05;5.55;;;1.67;;
38567;SDS011;24338;48.280;10.970;2022-10-22T00:11:32;7.63;;;2.72;;
38567;SDS011;24338;48.280;10.970;2022-10-22T00:13:59;4.68;;;1.70;;
38567;SDS011;24338;48.280;10.970;2022-10-22T00:16:26;7.45;;;2.58;;
38567;SDS011;24338;48.280;10.970;2022-10-22T00:18:53;6.70;;;2.20;;
38567;SDS011;24338;48.280;10.970;2022-10-22T00:21:19;3.63;;;1.92;;
38567;SDS011;24338;48.280;10.970;2022-10-22T00:23:47;4.82;;;1.92;;
38567;SDS011;24338;48.280;10.970;2022-10-22T00:26:14;5.47;;;2.03;;
38567;SDS011;24338;48.280;10.970;2022-10-22T00:28:41;4.30;;;1.92;;
38567;SDS011;24338;48.280;10.970;2022-10-22T00:31:08;3.53;;;1.77;;
38567;SDS011;24338;48.280;10.970;2022-10-22T00:33:35;5.00;;;1.88;;
38567;SDS011;24338;48.280;10.970;2022-10-22T00:36:02;5.03;;;2.10;;
38567;SDS011;24338;48.280;10.970;2022-10-22T00:38:29;4.93;;;2.10;;
38567;SDS011;24338;48.280;10.970;2022-10-22T00:40:56;5.05;;;1.80;;
38567;SDS011;24338;48.280;10.970;2022-10-22T00:43:23;5.60;;;1.73;;
38567;SDS011;24338;48.280;10.970;2022-10-22T00:45:50;6.05;;;2.10;;
38567;SDS011;24338;48.280;10.970;2022-10-22T00:48:21;5.30;;;2.17;;
38567;SDS011;24338;48.280;10.970;2022-10-22T00:53:18;2.42;;;1.30;;
38567;SDS011;24338;48.280;10.970;2022-10-22T00:55:50;4.97;;;1.70;;
38567;SDS011;24338;48.280;10.970;2022-10-22T00:58:19;5.35;;;1.95;;
38567;SDS011;24338;48.280;10.970;2022-10-22T01:00:50;3.95;;;1.65;;
38567;SDS011;24338;48.280;10.970;2022-10-22T01:03:17;5.20;;;1.80;;
38567;SDS011;24338;48.280;10.970;2022-10-22T01:05:58;4.18;;;1.73;;
38567;SDS011;24338;48.280;10.970;2022-10-22T01:11:14;3.42;;;1.20;;
38567;SDS011;24338;48.280;10.970;2022-10-22T01:13:59;6.22;;;1.67;;
38567;SDS011;24338;48.280;10.970;2022-10-22T01:16:46;2.63;;;1.23;;
38567;SDS011;24338;48.280;10.970;2022-10-22T01:21:56;3.22;;;1.10;;
38567;SDS011;24338;48.280;10.970;2022-10-22T01:30:10;2.97;;;1.00;;
38567;SDS011;24338;48.280;10.970;2022-10-22T01:32:47;4.13;;;1.30;;
38567;SDS011;24338;48.280;10.970;2022-10-22T01:35:18;4.72;;;1.98;;
38567;SDS011;24338;48.280;10.970;2022-10-22T01:37:53;3.75;;;1.38;;
38567;SDS011;24338;48.280;10.970;2022-10-22T01:42:56;3.63;;;1.20;;
38567;SDS011;24338;48.280;10.970;2022-10-22T01:45:26;4.82;;;1.35;;
38567;SDS011;24338;48.280;10.970;2022-10-22T01:48:08;3.85;;;1.40;;
38567;SDS011;24338;48.280;10.970;2022-10-22T01:51:09;4.22;;;1.17;;
38567;SDS011;24338;48.280;10.970;2022-10-22T01:53:50;4.43;;;1.42;;
38567;SDS011;24338;48.280;10.970;2022-10-22T01:56:35;3.53;;;1.48;;
38567;SDS011;24338;48.280;10.970;2022-10-22T01:59:09;6.05;;;2.08;;
38567;SDS011;24338;48.280;10.970;2022-10-22T02:04:49;3.38;;;1.58;;
38567;SDS011;24338;48.280;10.970;2022-10-22T02:07:27;5.15;;;1.73;;
38567;SDS011;24338;48.280;10.970;2022-10-22T02:09:59;4.88;;;1.10;;
38567;SDS011;24338;48.280;10.970;2022-10-22T02:12:28;2.88;;;1.73;;
38567;SDS011;24338;48.280;10.970;2022-10-22T02:14:57;3.15;;;1.33;;
38567;SDS011;24338;48.280;10.970;2022-10-22T02:17:26;3.35;;;1.35;;
38567;SDS011;24338;48.280;10.970;2022-10-22T02:19:56;3.33;;;1.30;;
38567;SDS011;24338;48.280;10.970;2022-10-22T02:22:26;3.05;;;1.55;;
38567;SDS011;24338;48.280;10.970;2022-10-22T02:24:53;3.13;;;1.33;;
38567;SDS011;24338;48.280;10.970;2022-10-22T02:30:24;4.20;;;1.20;;
38567;SDS011;24338;48.280;10.970;2022-10-22T02:35:39;3.58;;;1.45;;
38567;SDS011;24338;48.280;10.970;2022-10-22T02:38:07;7.53;;;1.42;;
38567;SDS011;24338;48.280;10.970;2022-10-22T02:40:36;5.40;;;1.80;;
38567;SDS011;24338;48.280;10.970;2022-10-22T02:43:04;3.97;;;1.40;;
38567;SDS011;24338;48.280;10.970;2022-10-22T02:45:31;3.20;;;1.02;;
38567;SDS011;24338;48.280;10.970;2022-10-22T02:48:00;3.90;;;1.30;;
38567;SDS011;24338;48.280;10.970;2022-10-22T02:50:27;4.35;;;1.40;;
38567;SDS011;24338;48.280;10.970;2022-10-22T02:52:54;3.08;;;1.20;;
38567;SDS011;24338;48.280;10.970;2022-10-22T02:55:21;3.38;;;1.13;;
38567;SDS011;24338;48.280;10.970;2022-10-22T02:57:48;4.30;;;1.55;;
38567;SDS011;24338;48.280;10.970;2022-10-22T03:00:14;4.85;;;1.63;;
38567;SDS011;24338;48.280;10.970;2022-10-22T03:02:42;4.32;;;1.70;;
38567;SDS011;24338;48.280;10.970;2022-10-22T03:05:08;4.20;;;1.73;;
38567;SDS011;24338;48.280;10.970;2022-10-22T03:07:35;4.13;;;1.67;;
38567;SDS011;24338;48.280;10.970;2022-10-22T03:10:03;3.83;;;1.40;;
38567;SDS011;24338;48.280;10.970;2022-10-22T03:12:30;4.93;;;1.75;;
38567;SDS011;24338;48.280;10.970;2022-10-22T03:14:57;3.75;;;1.40;;
38567;SDS011;24338;48.280;10.970;2022-10-22T03:17:24;7.00;;;1.20;;
38567;SDS011;24338;48.280;10.970;2022-10-22T03:19:51;3.00;;;1.10;;
38567;SDS011;24338;48.280;10.970;2022-10-22T03:22:22;5.65;;;1.63;;
38567;SDS011;24338;48.280;10.970;2022-10-22T03:24:53;3.58;;;1.10;;
38567;SDS011;24338;48.280;10.970;2022-10-22T03:27:23;4.63;;;1.40;;
38567;SDS011;24338;48.280;10.970;2022-10-22T03:29:53;6.93;;;1.48;;
38567;SDS011;24338;48.280;10.970;2022-10-22T03:32:21;2.47;;;1.13;;
38567;SDS011;24338;48.280;10.970;2022-10-22T03:34:48;5.78;;;1.52;;
38567;SDS011;24338;48.280;10.970;2022-10-22T03:37:15;1.52;;;0.70;;
38567;SDS011;24338;48.280;10.970;2022-10-22T03:39:42;4.03;;;1.40;;
38567;SDS011;24338;48.280;10.970;2022-10-22T03:42:10;3.55;;;0.98;;
38567;SDS011;24338;48.280;10.970;2022-10-22T03:44:38;1.75;;;0.60;;
38567;SDS011;24338;48.280;10.970;2022-10-22T03:47:06;1.85;;;0.73;;
38567;SDS011;24338;48.280;10.970;2022-10-22T03:49:33;1.38;;;0.73;;
38567;SDS011;24338;48.280;10.970;2022-10-22T03:52:04;4.70;;;0.98;;
38567;SDS011;24338;48.280;10.970;2022-10-22T03:54:33;4.07;;;0.80;;
38567;SDS011;24338;48.280;10.970;2022-10-22T03:57:01;3.05;;;0.82;;
38567;SDS011;24338;48.280;10.970;2022-10-22T03:59:33;2.58;;;0.95;;
38567;SDS011;24338;48.280;10.970;2022-10-22T04:02:04;1.98;;;0.70;;
38567;SDS011;24338;48.280;10.970;2022-10-22T04:04:31;2.30;;;0.70;;
38567;SDS011;24338;48.280;10.970;2022-10-22T04:06:58;3.38;;;0.88;;
38567;SDS011;24338;48.280;10.970;2022-10-22T04:09:24;5.63;;;0.80;;
38567;SDS011;24338;48.280;10.970;2022-10-22T04:11:51;1.90;;;0.43;;
38567;SDS011;24338;48.280;10.970;2022-10-22T04:14:18;2.75;;;0.60;;
38567;SDS011;24338;48.280;10.970;2022-10-22T04:16:45;1.15;;;0.40;;
38567;SDS011;24338;48.280;10.970;2022-10-22T04:19:12;1.98;;;0.35;;
38567;SDS011;24338;48.280;10.970;2022-10-22T04:21:39;1.95;;;0.77;;
38567;SDS011;24338;48.280;10.970;2022-10-22T04:24:06;1.25;;;0.30;;
38567;SDS011;24338;48.280;10.970;2022-10-22T04:26:33;1.85;;;0.40;;
38567;SDS011;24338;48.280;10.970;2022-10-22T04:29:00;1.58;;;0.47;;
38567;SDS011;24338;48.280;10.970;2022-10-22T04:31:27;2.83;;;0.88;;
38567;SDS011;24338;48.280;10.970;2022-10-22T04:33:55;10.00;;;4.25;;
38567;SDS011;24338;48.280;10.970;2022-10-22T04:36:24;19.33;;;9.13;;
38567;SDS011;24338;48.280;10.970;2022-10-22T04:38:52;5.00;;;2.20;;
38567;SDS011;24338;48.280;10.970;2022-10-22T04:41:23;1.50;;;0.68;;
38567;SDS011;24338;48.280;10.970;2022-10-22T04:43:55;1.98;;;0.40;;
38567;SDS011;24338;48.280;10.970;2022-10-22T04:46:24;2.40;;;0.40;;
38567;SDS011;24338;48.280;10.970;2022-10-22T04:48:52;0.95;;;0.20;;
38567;SDS011;24338;48.280;10.970;2022-10-22T04:51:21;1.48;;;0.50;;
38567;SDS011;24338;48.280;10.970;2022-10-22T04:53:49;1.00;;;0.30;;
38567;SDS011;24338;48.280;10.970;2022-10-22T04:56:16;1.70;;;0.35;;
38567;SDS011;24338;48.280;10.970;2022-10-22T04:58:55;1.65;;;0.38;;
38567;SDS011;24338;48.280;10.970;2022-10-22T05:01:32;2.60;;;0.47;;
38567;SDS011;24338;48.280;10.970;2022-10-22T05:04:09;2.03;;;0.60;;
38567;SDS011;24338;48.280;10.970;2022-10-22T05:06:38;0.60;;;0.20;;
38567;SDS011;24338;48.280;10.970;2022-10-22T05:09:07;1.13;;;0.30;;
38567;SDS011;24338;48.280;10.970;2022-10-22T05:11:40;1.38;;;0.30;;
38567;SDS011;24338;48.280;10.970;2022-10-22T05:14:11;0.88;;;0.30;;
38567;SDS011;24338;48.280;10.970;2022-10-22T05:16:38;1.15;;;0.40;;
38567;SDS011;24338;48.280;10.970;2022-10-22T05:19:05;1.85;;;0.32;;
38567;SDS011;24338;48.280;10.970;2022-10-22T05:21:33;2.08;;;0.55;;
38567;SDS011;24338;48.280;10.970;2022-10-22T05:24:01;2.28;;;0.47;;
38567;SDS011;24338;48.280;10.970;2022-10-22T05:26:29;2.50;;;0.40;;
38567;SDS011;24338;48.280;10.970;2022-10-22T05:28:56;2.33;;;0.47;;
38567;SDS011;24338;48.280;10.970;2022-10-22T05:31:23;4.78;;;0.30;;
38567;SDS011;24338;48.280;10.970;2022-10-22T05:36:25;1.10;;;0.32;;
38567;SDS011;24338;48.280;10.970;2022-10-22T05:38:53;1.50;;;0.20;;
38567;SDS011;24338;48.280;10.970;2022-10-22T05:41:21;2.80;;;0.30;;
38567;SDS011;24338;48.280;10.970;2022-10-22T05:43:49;3.03;;;0.20;;
38567;SDS011;24338;48.280;10.970;2022-10-22T05:46:17;0.47;;;0.17;;
38567;SDS011;24338;48.280;10.970;2022-10-22T05:48:49;0.70;;;0.25;;
38567;SDS011;24338;48.280;10.970;2022-10-22T05:51:27;1.10;;;0.20;;
38567;SDS011;24338;48.280;10.970;2022-10-22T05:53:57;0.22;;;0.10;;
38567;SDS011;24338;48.280;10.970;2022-10-22T05:56:26;6.45;;;0.30;;
38567;SDS011;24338;48.280;10.970;2022-10-22T05:58:54;0.57;;;0.20;;
38567;SDS011;24338;48.280;10.970;2022-10-22T06:01:29;1.30;;;0.10;;
38567;SDS011;24338;48.280;10.970;2022-10-22T06:03:58;1.20;;;0.17;;
38567;SDS011;24338;48.280;10.970;2022-10-22T06:09:12;0.35;;;0.10;;
38567;SDS011;24338;48.280;10.970;2022-10-22T06:11:46;0.20;;;0.00;;
38567;SDS011;24338;48.280;10.970;2022-10-22T06:14:14;0.73;;;0.20;;
38567;SDS011;24338;48.280;10.970;2022-10-22T06:16:41;0.50;;;0.10;;
38567;SDS011;24338;48.280;10.970;2022-10-22T06:19:09;0.60;;;0.20;;
38567;SDS011;24338;48.280;10.970;2022-10-22T06:21:37;0.98;;;0.10;;
38567;SDS011;24338;48.280;10.970;2022-10-22T06:24:04;0.43;;;0.00;;
38567;SDS011;24338;48.280;10.970;2022-10-22T06:26:32;0.55;;;0.10;;
38567;SDS011;24338;48.280;10.970;2022-10-22T06:28:59;1.20;;;0.10;;
38567;SDS011;24338;48.280;10.970;2022-10-22T06:31:26;0.10;;;0.03;;
38567;SDS011;24338;48.280;10.970;2022-10-22T06:33:55;0.75;;;0.10;;
38567;SDS011;24338;48.280;10.970;2022-10-22T06:36:22;0.28;;;0.00;;
38567;SDS011;24338;48.280;10.970;2022-10-22T06:38:50;1.80;;;0.20;;
38567;SDS011;24338;48.280;10.970;2022-10-22T06:41:18;0.80;;;0.30;;
38567;SDS011;24338;48.280;10.970;2022-10-22T06:43:48;0.35;;;0.10;;
38567;SDS011;24338;48.280;10.970;2022-10-22T06:46:16;1.20;;;0.20;;
38567;SDS011;24338;48.280;10.970;2022-10-22T06:48:55;0.38;;;0.10;;
38567;SDS011;24338;48.280;10.970;2022-10-22T06:51:25;0.85;;;0.25;;
38567;SDS011;24338;48.280;10.970;2022-10-22T06:53:52;1.15;;;0.20;;
38567;SDS011;24338;48.280;10.970;2022-10-22T06:56:21;0.75;;;0.20;;
38567;SDS011;24338;48.280;10.970;2022-10-22T06:58:49;0.32;;;0.10;;
38567;SDS011;24338;48.280;10.970;2022-10-22T07:01:18;1.00;;;0.35;;
38567;SDS011;24338;48.280;10.970;2022-10-22T07:03:49;0.63;;;0.20;;
38567;SDS011;24338;48.280;10.970;2022-10-22T07:06:17;0.45;;;0.10;;
38567;SDS011;24338;48.280;10.970;2022-10-22T07:08:44;0.98;;;0.10;;
38567;SDS011;24338;48.280;10.970;2022-10-22T07:11:13;3.20;;;0.30;;
38567;SDS011;24338;48.280;10.970;2022-10-22T07:13:45;1.13;;;0.20;;
38567;SDS011;24338;48.280;10.970;2022-10-22T07:16:13;1.75;;;0.22;;
38567;SDS011;24338;48.280;10.970;2022-10-22T07:18:41;0.55;;;0.20;;
38567;SDS011;24338;48.280;10.970;2022-10-22T07:21:09;2.00;;;0.80;;
38567;SDS011;24338;48.280;10.970;2022-10-22T07:23:37;2.47;;;0.85;;
38567;SDS011;24338;48.280;10.970;2022-10-22T07:26:05;1.83;;;0.50;;
38567;SDS011;24338;48.280;10.970;2022-10-22T07:28:34;4.43;;;0.90;;
38567;SDS011;24338;48.280;10.970;2022-10-22T07:31:04;3.92;;;0.60;;
38567;SDS011;24338;48.280;10.970;2022-10-22T07:33:32;0.88;;;0.20;;
38567;SDS011;24338;48.280;10.970;2022-10-22T07:35:59;1.15;;;0.35;;
38567;SDS011;24338;48.280;10.970;2022-10-22T07:38:28;2.53;;;0.70;;
38567;SDS011;24338;48.280;10.970;2022-10-22T07:40:57;0.95;;;0.40;;
38567;SDS011;24338;48.280;10.970;2022-10-22T07:43:24;2.28;;;0.57;;
38567;SDS011;24338;48.280;10.970;2022-10-22T07:45:51;1.70;;;0.52;;
38567;SDS011;24338;48.280;10.970;2022-10-22T07:48:18;1.55;;;0.60;;
38567;SDS011;24338;48.280;10.970;2022-10-22T07:50:45;1.63;;;0.38;;
38567;SDS011;24338;48.280;10.970;2022-10-22T07:53:11;4.40;;;2.08;;
38567;SDS011;24338;48.280;10.970;2022-10-22T07:55:38;3.20;;;2.03;;
38567;SDS011;24338;48.280;10.970;2022-10-22T07:58:05;0.90;;;0.30;;
38567;SDS011;24338;48.280;10.970;2022-10-22T08:00:32;0.85;;;0.30;;
38567;SDS011;24338;48.280;10.970;2022-10-22T08:02:59;0.68;;;0.17;;
38567;SDS011;24338;48.280;10.970;2022-10-22T08:05:26;1.13;;;0.35;;
38567;SDS011;24338;48.280;10.970;2022-10-22T08:07:53;3.25;;;0.90;;
38567;SDS011;24338;48.280;10.970;2022-10-22T08:10:20;1.65;;;0.40;;
38567;SDS011;24338;48.280;10.970;2022-10-22T08:12:46;5.20;;;3.38;;
38567;SDS011;24338;48.280;10.970;2022-10-22T08:15:13;0.70;;;0.28;;
38567;SDS011;24338;48.280;10.970;2022-10-22T08:17:40;1.75;;;0.60;;
38567;SDS011;24338;48.280;10.970;2022-10-22T08:20:07;1.50;;;0.70;;
38567;SDS011;24338;48.280;10.970;2022-10-22T08:22:35;1.35;;;0.30;;
38567;SDS011;24338;48.280;10.970;2022-10-22T08:25:02;1.50;;;0.47;;
38567;SDS011;24338;48.280;10.970;2022-10-22T08:27:29;1.98;;;0.60;;
38567;SDS011;24338;48.280;10.970;2022-10-22T08:29:56;1.88;;;0.52;;
38567;SDS011;24338;48.280;10.970;2022-10-22T08:32:22;0.80;;;0.30;;
38567;SDS011;24338;48.280;10.970;2022-10-22T08:34:49;2.63;;;0.30;;
38567;SDS011;24338;48.280;10.970;2022-10-22T08:37:16;0.30;;;0.10;;
38567;SDS011;24338;48.280;10.970;2022-10-22T08:39:43;0.45;;;0.10;;
38567;SDS011;24338;48.280;10.970;2022-10-22T08:45:01;1.30;;;0.20;;
38567;SDS011;24338;48.280;10.970;2022-10-22T08:50:08;1.30;;;0.28;;
38567;SDS011;24338;48.280;10.970;2022-10-22T08:52:39;1.48;;;0.40;;
38567;SDS011;24338;48.280;10.970;2022-10-22T08:55:11;3.05;;;0.90;;
38567;SDS011;24338;48.280;10.970;2022-10-22T08:57:49;0.43;;;0.10;;
38567;SDS011;24338;48.280;10.970;2022-10-22T09:00:40;0.20;;;0.10;;
38567;SDS011;24338;48.280;10.970;2022-10-22T09:06:12;0.60;;;0.20;;
38567;SDS011;24338;48.280;10.970;2022-10-22T09:08:45;2.53;;;0.25;;
38567;SDS011;24338;48.280;10.970;2022-10-22T09:14:02;1.65;;;0.10;;
38567;SDS011;24338;48.280;10.970;2022-10-22T09:27:45;0.82;;;0.10;;
38567;SDS011;24338;48.280;10.970;2022-10-22T09:30:17;0.30;;;0.10;;
38567;SDS011;24338;48.280;10.970;2022-10-22T09:32:46;2.22;;;0.20;;
38567;SDS011;24338;48.280;10.970;2022-10-22T09:35:21;0.70;;;0.20;;
38567;SDS011;24338;48.280;10.970;2022-10-22T09:37:50;0.32;;;0.10;;
38567;SDS011;24338;48.280;10.970;2022-10-22T09:40:19;0.95;;;0.10;;
38567;SDS011;24338;48.280;10.970;2022-10-22T09:42:47;0.70;;;0.30;;
38567;SDS011;24338;48.280;10.970;2022-10-22T09:45:18;1.10;;;0.25;;
38567;SDS011;24338;48.280;10.970;2022-10-22T09:47:50;0.55;;;0.17;;
38567;SDS011;24338;48.280;10.970;2022-10-22T09:50:43;2.17;;;0.30;;
38567;SDS011;24338;48.280;10.970;2022-10-22T09:55:58;1.05;;;0.20;;
38567;SDS011;24338;48.280;10.970;2022-10-22T09:58:26;2.20;;;1.15;;
38567;SDS011;24338;48.280;10.970;2022-10-22T10:00:57;5.60;;;0.30;;
38567;SDS011;24338;48.280;10.970;2022-10-22T10:03:27;0.43;;;0.13;;
38567;SDS011;24338;48.280;10.970;2022-10-22T10:05:59;1.00;;;0.20;;
38567;SDS011;24338;48.280;10.970;2022-10-22T10:08:31;0.85;;;0.20;;
38567;SDS011;24338;48.280;10.970;2022-10-22T10:11:01;1.27;;;0.30;;
38567;SDS011;24338;48.280;10.970;2022-10-22T10:14:06;0.57;;;0.20;;
38567;SDS011;24338;48.280;10.970;2022-10-22T10:16:44;0.75;;;0.20;;
38567;SDS011;24338;48.280;10.970;2022-10-22T10:19:45;1.05;;;0.20;;
38567;SDS011;24338;48.280;10.970;2022-10-22T10:30:45;1.85;;;0.30;;
38567;SDS011;24338;48.280;10.970;2022-10-22T10:39:03;0.30;;;0.08;;
38567;SDS011;24338;48.280;10.970;2022-10-22T10:44:55;0.93;;;0.10;;
38567;SDS011;24338;48.280;10.970;2022-10-22T10:50:15;0.68;;;0.22;;
38567;SDS011;24338;48.280;10.970;2022-10-22T10:55:34;3.95;;;0.30;;
38567;SDS011;24338;48.280;10.970;2022-10-22T11:01:11;0.77;;;0.20;;
38567;SDS011;24338;48.280;10.970;2022-10-22T11:06:51;0.57;;;0.20;;
38567;SDS011;24338;48.280;10.970;2022-10-22T11:09:38;1.30;;;0.30;;
38567;SDS011;24338;48.280;10.970;2022-10-22T11:12:16;1.30;;;0.20;;
38567;SDS011;24338;48.280;10.970;2022-10-22T11:17:30;0.82;;;0.38;;
38567;SDS011;24338;48.280;10.970;2022-10-22T11:20:21;1.30;;;0.20;;
38567;SDS011;24338;48.280;10.970;2022-10-22T11:23:28;1.17;;;0.52;;
38567;SDS011;24338;48.280;10.970;2022-10-22T11:25:55;2.40;;;0.40;;
38567;SDS011;24338;48.280;10.970;2022-10-22T11:31:03;2.67;;;0.20;;
38567;SDS011;24338;48.280;10.970;2022-10-22T11:33:47;1.48;;;0.32;;
38567;SDS011;24338;48.280;10.970;2022-10-22T11:36:50;0.90;;;0.45;;
38567;SDS011;24338;48.280;10.970;2022-10-22T11:39:29;0.93;;;0.20;;
38567;SDS011;24338;48.280;10.970;2022-10-22T11:42:09;1.20;;;0.20;;
38567;SDS011;24338;48.280;10.970;2022-10-22T11:44:48;1.00;;;0.30;;
38567;SDS011;24338;48.280;10.970;2022-10-22T11:47:32;6.20;;;0.55;;
38567;SDS011;24338;48.280;10.970;2022-10-22T11:50:21;1.75;;;0.17;;
38567;SDS011;24338;48.280;10.970;2022-10-22T11:52:58;1.30;;;0.20;;
38567;SDS011;24338;48.280;10.970;2022-10-22T12:03:37;2.10;;;0.20;;
38567;SDS011;24338;48.280;10.970;2022-10-22T12:08:44;0.40;;;0.13;;
38567;SDS011;24338;48.280;10.970;2022-10-22T12:16:42;0.57;;;0.15;;
38567;SDS011;24338;48.280;10.970;2022-10-22T12:24:36;1.17;;;0.20;;
38567;SDS011;24338;48.280;10.970;2022-10-22T12:27:24;2.33;;;0.38;;
38567;SDS011;24338;48.280;10.970;2022-10-22T12:29:53;1.83;;;0.75;;
38567;SDS011;24338;48.280;10.970;2022-10-22T12:32:21;1.25;;;0.30;;
38567;SDS011;24338;48.280;10.970;2022-10-22T12:34:50;3.50;;;0.35;;
38567;SDS011;24338;48.280;10.970;2022-10-22T12:37:17;0.77;;;0.20;;
38567;SDS011;24338;48.280;10.970;2022-10-22T12:39:45;1.38;;;0.30;;
38567;SDS011;24338;48.280;10.970;2022-10-22T12:42:16;3.25;;;0.30;;
38567;SDS011;24338;48.280;10.970;2022-10-22T12:44:43;1.83;;;0.50;;
38567;SDS011;24338;48.280;10.970;2022-10-22T12:47:14;3.75;;;0.40;;
38567;SDS011;24338;48.280;10.970;2022-10-22T12:49:45;2.90;;;0.35;;
38567;SDS011;24338;48.280;10.970;2022-10-22T12:52:18;5.30;;;0.50;;
38567;SDS011;24338;48.280;10.970;2022-10-22T12:54:48;1.85;;;0.40;;
38567;SDS011;24338;48.280;10.970;2022-10-22T12:57:20;1.30;;;0.20;;
38567;SDS011;24338;48.280;10.970;2022-10-22T12:59:48;0.82;;;0.20;;
38567;SDS011;24338;48.280;10.970;2022-10-22T13:02:18;2.25;;;0.20;;
38567;SDS011;24338;48.280;10.970;2022-10-22T13:07:42;4.05;;;0.68;;
38567;SDS011;24338;48.280;10.970;2022-10-22T13:12:54;6.32;;;0.57;;
38567;SDS011;24338;48.280;10.970;2022-10-22T13:20:57;2.75;;;0.40;;
38567;SDS011;24338;48.280;10.970;2022-10-22T13:23:29;2.35;;;0.30;;
38567;SDS011;24338;48.280;10.970;2022-10-22T13:26:02;3.08;;;0.35;;
38567;SDS011;24338;48.280;10.970;2022-10-22T13:28:30;2.08;;;0.30;;
38567;SDS011;24338;48.280;10.970;2022-10-22T13:30:58;1.00;;;0.20;;
38567;SDS011;24338;48.280;10.970;2022-10-22T13:33:40;2.65;;;0.40;;
38567;SDS011;24338;48.280;10.970;2022-10-22T13:36:13;1.73;;;0.50;;
38567;SDS011;24338;48.280;10.970;2022-10-22T13:43:49;3.43;;;0.67;;
38567;SDS011;24338;48.280;10.970;2022-10-22T13:46:17;3.65;;;0.60;;
38567;SDS011;24338;48.280;10.970;2022-10-22T13:48:45;1.00;;;0.30;;
38567;SDS011;24338;48.280;10.970;2022-10-22T13:51:18;4.85;;;0.60;;
38567;SDS011;24338;48.280;10.970;2022-10-22T13:53:50;1.33;;;0.30;;
38567;SDS011;24338;48.280;10.970;2022-10-22T13:56:19;2.25;;;0.45;;
38567;SDS011;24338;48.280;10.970;2022-10-22T13:58:46;1.35;;;0.30;;
38567;SDS011;24338;48.280;10.970;2022-10-22T14:01:24;2.38;;;0.52;;
38567;SDS011;24338;48.280;10.970;2022-10-22T14:03:57;1.98;;;0.40;;
38567;SDS011;24338;48.280;10.970;2022-10-22T14:06:28;3.80;;;0.50;;
38567;SDS011;24338;48.280;10.970;2022-10-22T14:08:58;2.88;;;0.60;;
38567;SDS011;24338;48.280;10.970;2022-10-22T14:11:27;2.92;;;0.55;;
38567;SDS011;24338;48.280;10.970;2022-10-22T14:13:56;2.97;;;0.70;;
38567;SDS011;24338;48.280;10.970;2022-10-22T14:16:24;1.77;;;0.50;;
38567;SDS011;24338;48.280;10.970;2022-10-22T14:18:53;2.83;;;0.70;;
38567;SDS011;24338;48.280;10.970;2022-10-22T14:21:21;3.33;;;0.32;;
38567;SDS011;24338;48.280;10.970;2022-10-22T14:23:48;3.92;;;0.52;;
38567;SDS011;24338;48.280;10.970;2022-10-22T14:26:21;1.02;;;0.30;;
38567;SDS011;24338;48.280;10.970;2022-10-22T14:28:50;3.55;;;0.40;;
38567;SDS011;24338;48.280;10.970;2022-10-22T14:31:40;1.88;;;0.35;;
38567;SDS011;24338;48.280;10.970;2022-10-22T14:34:10;2.05;;;0.22;;
38567;SDS011;24338;48.280;10.970;2022-10-22T14:36:39;1.70;;;0.40;;
38567;SDS011;24338;48.280;10.970;2022-10-22T14:39:09;1.00;;;0.40;;
38567;SDS011;24338;48.280;10.970;2022-10-22T14:41:36;3.25;;;0.32;;
38567;SDS011;24338;48.280;10.970;2022-10-22T14:44:04;2.33;;;0.40;;
38567;SDS011;24338;48.280;10.970;2022-10-22T14:46:30;1.80;;;0.40;;
38567;SDS011;24338;48.280;10.970;2022-10-22T14:48:57;2.08;;;0.28;;
38567;SDS011;24338;48.280;10.970;2022-10-22T14:51:24;5.47;;;0.57;;
38567;SDS011;24338;48.280;10.970;2022-10-22T14:53:51;1.60;;;0.45;;
38567;SDS011;24338;48.280;10.970;2022-10-22T14:56:18;1.52;;;0.30;;
38567;SDS011;24338;48.280;10.970;2022-10-22T14:58:48;3.50;;;0.40;;
38567;SDS011;24338;48.280;10.970;2022-10-22T15:01:15;11.35;;;0.95;;
38567;SDS011;24338;48.280;10.970;2022-10-22T15:03:42;1.80;;;0.68;;
38567;SDS011;24338;48.280;10.970;2022-10-22T15:06:09;83.28;;;9.80;;
38567;SDS011;24338;48.280;10.970;2022-10-22T15:08:36;2.10;;;0.65;;
38567;SDS011;24338;48.280;10.970;2022-10-22T15:11:07;0.95;;;0.28;;
38567;SDS011;24338;48.280;10.970;2022-10-22T15:13:36;10.45;;;2.20;;
38567;SDS011;24338;48.280;10.970;2022-10-22T15:16:05;63.53;;;15.93;;
38567;SDS011;24338;48.280;10.970;2022-10-22T15:18:33;7.97;;;0.88;;
38567;SDS011;24338;48.280;10.970;2022-10-22T15:21:00;4.40;;;0.93;;
38567;SDS011;24338;48.280;10.970;2022-10-22T15:23:31;1.63;;;0.47;;
38567;SDS011;24338;48.280;10.970;2022-10-22T15:25:58;0.73;;;0.40;;
38567;SDS011;24338;48.280;10.970;2022-10-22T15:28:25;2.75;;;0.63;;
38567;SDS011;24338;48.280;10.970;2022-10-22T15:30:56;2.40;;;0.70;;
38567;SDS011;24338;48.280;10.970;2022-10-22T15:33:26;4.30;;;0.85;;
38567;SDS011;24338;48.280;10.970;2022-10-22T15:35:54;2.13;;;0.40;;
38567;SDS011;24338;48.280;10.970;2022-10-22T15:38:26;4.43;;;0.80;;
38567;SDS011;24338;48.280;10.970;2022-10-22T15:41:02;4.57;;;0.80;;
38567;SDS011;24338;48.280;10.970;2022-10-22T15:43:31;11.00;;;7.72;;
38567;SDS011;24338;48.280;10.970;2022-10-22T15:46:17;7.72;;;4.20;;
38567;SDS011;24338;48.280;10.970;2022-10-22T15:48:45;10.02;;;6.47;;
38567;SDS011;24338;48.280;10.970;2022-10-22T15:51:16;13.73;;;9.02;;
38567;SDS011;24338;48.280;10.970;2022-10-22T15:56:20;7.95;;;3.13;;
38567;SDS011;24338;48.280;10.970;2022-10-22T15:58:51;4.55;;;2.00;;
38567;SDS011;24338;48.280;10.970;2022-10-22T16:01:23;6.70;;;2.38;;
38567;SDS011;24338;48.280;10.970;2022-10-22T16:03:51;4.38;;;1.67;;
38567;SDS011;24338;48.280;10.970;2022-10-22T16:06:25;5.00;;;1.45;;
38567;SDS011;24338;48.280;10.970;2022-10-22T16:08:53;6.15;;;1.50;;
38567;SDS011;24338;48.280;10.970;2022-10-22T16:11:22;3.20;;;1.40;;
38567;SDS011;24338;48.280;10.970;2022-10-22T16:13:56;6.45;;;2.25;;
38567;SDS011;24338;48.280;10.970;2022-10-22T16:16:25;4.22;;;1.70;;
38567;SDS011;24338;48.280;10.970;2022-10-22T16:18:53;8.13;;;1.70;;
38567;SDS011;24338;48.280;10.970;2022-10-22T16:21:21;4.13;;;1.08;;
38567;SDS011;24338;48.280;10.970;2022-10-22T16:23:49;3.35;;;1.48;;
38567;SDS011;24338;48.280;10.970;2022-10-22T16:26:16;3.22;;;0.85;;
38567;SDS011;24338;48.280;10.970;2022-10-22T16:28:45;3.78;;;1.00;;
38567;SDS011;24338;48.280;10.970;2022-10-22T16:31:14;3.67;;;1.77;;
38567;SDS011;24338;48.280;10.970;2022-10-22T16:33:42;2.15;;;1.10;;
38567;SDS011;24338;48.280;10.970;2022-10-22T16:36:15;4.50;;;1.60;;
38567;SDS011;24338;48.280;10.970;2022-10-22T16:38:44;4.88;;;1.50;;
38567;SDS011;24338;48.280;10.970;2022-10-22T16:41:15;3.80;;;1.02;;
38567;SDS011;24338;48.280;10.970;2022-10-22T16:43:42;6.10;;;2.10;;
38567;SDS011;24338;48.280;10.970;2022-10-22T16:46:12;7.50;;;4.50;;
38567;SDS011;24338;48.280;10.970;2022-10-22T16:48:47;21.65;;;13.90;;
38567;SDS011;24338;48.280;10.970;2022-10-22T16:51:15;24.60;;;17.17;;
38567;SDS011;24338;48.280;10.970;2022-10-22T16:53:44;15.13;;;11.63;;
38567;SDS011;24338;48.280;10.970;2022-10-22T16:56:11;7.72;;;6.97;;
38567;SDS011;24338;48.280;10.970;2022-10-22T16:58:44;7.20;;;4.13;;
38567;SDS011;24338;48.280;10.970;2022-10-22T17:01:16;5.80;;;2.97;;
38567;SDS011;24338;48.280;10.970;2022-10-22T17:03:44;6.55;;;3.70;;